sensor_id;sensor_type;location;lat;lon;timestamp;P1;durP1;ratioP1;P2;durP2;ratioP2
58727;SDS011;44505;43.240;0.070;2023-02-24T00:00:20;12.13;;;8.65;;
58727;SDS011;44505;43.240;0.070;2023-02-24T00:03:02;11.52;;;7.68;;
58727;SDS011;44505;43.240;0.070;2023-02-24T00:05:36;13.93;;;8.45;;
58727;SDS011;44505;43.240;0.070;2023-02-24T00:08:04;16.15;;;9.07;;
58727;SDS011;44505;43.240;0.070;2023-02-24T00:10:29;15.50;;;8.43;;
58727;SDS011;44505;43.240;0.070;2023-02-24T00:12:54;13.80;;;8.13;;
58727;SDS011;44505;43.240;0.070;2023-02-24T00:15:20;16.20;;;10.45;;
58727;SDS011;44505;43.240;0.070;2023-02-24T00:17:45;8.68;;;5.95;;
58727;SDS011;44505;43.240;0.070;2023-02-24T00:20:11;8.77;;;6.25;;
58727;SDS011;44505;43.240;0.070;2023-02-24T00:22:37;6.60;;;5.40;;
58727;SDS011;44505;43.240;0.070;2023-02-24T00:25:03;8.20;;;5.93;;
58727;SDS011;44505;43.240;0.070;2023-02-24T00:27:28;9.43;;;5.97;;
58727;SDS011;44505;43.240;0.070;2023-02-24T00:29:54;8.55;;;5.72;;
58727;SDS011;44505;43.240;0.070;2023-02-24T00:32:20;17.67;;;10.55;;
58727;SDS011;44505;43.240;0.070;2023-02-24T00:34:46;49.13;;;28.33;;
58727;SDS011;44505;43.240;0.070;2023-02-24T00:37:12;15.97;;;10.10;;
58727;SDS011;44505;43.240;0.070;2023-02-24T00:39:39;22.35;;;12.60;;
58727;SDS011;44505;43.240;0.070;2023-02-24T00:42:06;8.85;;;6.50;;
58727;SDS011;44505;43.240;0.070;2023-02-24T00:44:44;10.15;;;6.60;;
58727;SDS011;44505;43.240;0.070;2023-02-24T00:47:11;14.55;;;9.43;;
58727;SDS011;44505;43.240;0.070;2023-02-24T00:49:37;10.35;;;7.32;;
58727;SDS011;44505;43.240;0.070;2023-02-24T00:52:10;8.13;;;6.00;;
58727;SDS011;44505;43.240;0.070;2023-02-24T00:54:37;9.13;;;6.05;;
58727;SDS011;44505;43.240;0.070;2023-02-24T00:57:03;7.65;;;5.65;;
58727;SDS011;44505;43.240;0.070;2023-02-24T00:59:28;7.15;;;5.85;;
58727;SDS011;44505;43.240;0.070;2023-02-24T01:01:54;12.75;;;8.48;;
58727;SDS011;44505;43.240;0.070;2023-02-24T01:04:20;33.60;;;18.50;;
58727;SDS011;44505;43.240;0.070;2023-02-24T01:06:47;15.40;;;9.13;;
58727;SDS011;44505;43.240;0.070;2023-02-24T01:09:14;57.75;;;29.95;;
58727;SDS011;44505;43.240;0.070;2023-02-24T01:11:41;39.92;;;19.73;;
58727;SDS011;44505;43.240;0.070;2023-02-24T01:14:29;25.98;;;14.68;;
58727;SDS011;44505;43.240;0.070;2023-02-24T01:16:54;27.02;;;14.95;;
58727;SDS011;44505;43.240;0.070;2023-02-24T01:19:24;37.83;;;17.92;;
58727;SDS011;44505;43.240;0.070;2023-02-24T01:21:54;30.08;;;15.10;;
58727;SDS011;44505;43.240;0.070;2023-02-24T01:24:22;28.85;;;14.38;;
58727;SDS011;44505;43.240;0.070;2023-02-24T01:26:47;16.25;;;10.32;;
58727;SDS011;44505;43.240;0.070;2023-02-24T01:29:13;41.08;;;19.50;;
58727;SDS011;44505;43.240;0.070;2023-02-24T01:31:39;14.98;;;8.65;;
58727;SDS011;44505;43.240;0.070;2023-02-24T01:34:07;12.73;;;7.47;;
58727;SDS011;44505;43.240;0.070;2023-02-24T01:36:35;13.10;;;8.60;;
58727;SDS011;44505;43.240;0.070;2023-02-24T01:39:00;11.68;;;7.55;;
58727;SDS011;44505;43.240;0.070;2023-02-24T01:41:26;10.07;;;7.50;;
58727;SDS011;44505;43.240;0.070;2023-02-24T01:43:56;11.52;;;8.00;;
58727;SDS011;44505;43.240;0.070;2023-02-24T01:46:29;10.75;;;6.75;;
58727;SDS011;44505;43.240;0.070;2023-02-24T01:48:57;8.70;;;6.03;;
58727;SDS011;44505;43.240;0.070;2023-02-24T01:51:27;6.28;;;5.43;;
58727;SDS011;44505;43.240;0.070;2023-02-24T01:53:53;6.40;;;5.00;;
58727;SDS011;44505;43.240;0.070;2023-02-24T01:56:19;6.25;;;5.03;;
58727;SDS011;44505;43.240;0.070;2023-02-24T01:58:44;6.20;;;4.10;;
58727;SDS011;44505;43.240;0.070;2023-02-24T02:01:10;5.78;;;4.05;;
58727;SDS011;44505;43.240;0.070;2023-02-24T02:03:39;5.57;;;3.75;;
58727;SDS011;44505;43.240;0.070;2023-02-24T02:06:07;4.25;;;3.75;;
58727;SDS011;44505;43.240;0.070;2023-02-24T02:08:33;3.65;;;3.15;;
58727;SDS011;44505;43.240;0.070;2023-02-24T02:11:02;5.32;;;3.90;;
58727;SDS011;44505;43.240;0.070;2023-02-24T02:13:28;5.00;;;3.67;;
58727;SDS011;44505;43.240;0.070;2023-02-24T02:16:09;5.00;;;3.40;;
58727;SDS011;44505;43.240;0.070;2023-02-24T02:18:44;8.05;;;4.72;;
58727;SDS011;44505;43.240;0.070;2023-02-24T02:22:16;7.22;;;4.50;;
58727;SDS011;44505;43.240;0.070;2023-02-24T02:26:52;7.37;;;4.50;;
58727;SDS011;44505;43.240;0.070;2023-02-24T02:29:36;5.38;;;3.85;;
58727;SDS011;44505;43.240;0.070;2023-02-24T02:37:31;7.25;;;5.05;;
58727;SDS011;44505;43.240;0.070;2023-02-24T02:40:04;6.95;;;4.18;;
58727;SDS011;44505;43.240;0.070;2023-02-24T02:52:54;9.52;;;6.50;;
58727;SDS011;44505;43.240;0.070;2023-02-24T02:55:21;8.60;;;5.80;;
58727;SDS011;44505;43.240;0.070;2023-02-24T02:57:49;14.10;;;7.15;;
58727;SDS011;44505;43.240;0.070;2023-02-24T03:02:46;11.65;;;5.15;;
58727;SDS011;44505;43.240;0.070;2023-02-24T03:05:14;10.63;;;4.90;;
58727;SDS011;44505;43.240;0.070;2023-02-24T03:07:43;5.32;;;3.28;;
58727;SDS011;44505;43.240;0.070;2023-02-24T03:10:10;5.05;;;3.45;;
58727;SDS011;44505;43.240;0.070;2023-02-24T03:12:41;5.05;;;3.67;;
58727;SDS011;44505;43.240;0.070;2023-02-24T03:17:36;4.60;;;3.38;;
58727;SDS011;44505;43.240;0.070;2023-02-24T03:20:08;3.85;;;2.78;;
58727;SDS011;44505;43.240;0.070;2023-02-24T03:22:45;4.78;;;3.22;;
58727;SDS011;44505;43.240;0.070;2023-02-24T03:25:13;8.65;;;4.85;;
58727;SDS011;44505;43.240;0.070;2023-02-24T03:27:48;9.30;;;4.22;;
58727;SDS011;44505;43.240;0.070;2023-02-24T03:30:16;6.10;;;3.50;;
58727;SDS011;44505;43.240;0.070;2023-02-24T03:35:41;5.82;;;3.05;;
58727;SDS011;44505;43.240;0.070;2023-02-24T03:38:07;5.18;;;3.13;;
58727;SDS011;44505;43.240;0.070;2023-02-24T03:40:35;3.70;;;2.90;;
58727;SDS011;44505;43.240;0.070;2023-02-24T03:43:03;3.78;;;2.70;;
58727;SDS011;44505;43.240;0.070;2023-02-24T03:45:33;4.57;;;2.67;;
58727;SDS011;44505;43.240;0.070;2023-02-24T03:47:59;3.58;;;2.92;;
58727;SDS011;44505;43.240;0.070;2023-02-24T03:50:27;4.72;;;2.70;;
58727;SDS011;44505;43.240;0.070;2023-02-24T03:55:30;2.83;;;2.40;;
58727;SDS011;44505;43.240;0.070;2023-02-24T04:03:11;4.03;;;2.63;;
58727;SDS011;44505;43.240;0.070;2023-02-24T04:05:50;3.65;;;2.88;;
58727;SDS011;44505;43.240;0.070;2023-02-24T04:08:18;3.20;;;2.28;;
58727;SDS011;44505;43.240;0.070;2023-02-24T04:19:02;2.33;;;2.10;;
58727;SDS011;44505;43.240;0.070;2023-02-24T04:21:28;3.42;;;2.45;;
58727;SDS011;44505;43.240;0.070;2023-02-24T04:23:56;2.67;;;2.30;;
58727;SDS011;44505;43.240;0.070;2023-02-24T04:26:21;2.92;;;2.25;;
58727;SDS011;44505;43.240;0.070;2023-02-24T04:28:49;2.95;;;2.10;;
58727;SDS011;44505;43.240;0.070;2023-02-24T04:31:14;3.83;;;2.42;;
58727;SDS011;44505;43.240;0.070;2023-02-24T04:33:42;2.88;;;2.45;;
58727;SDS011;44505;43.240;0.070;2023-02-24T04:36:09;2.10;;;2.00;;
58727;SDS011;44505;43.240;0.070;2023-02-24T04:41:02;2.00;;;1.75;;
58727;SDS011;44505;43.240;0.070;2023-02-24T04:43:27;2.03;;;1.77;;
58727;SDS011;44505;43.240;0.070;2023-02-24T04:45:53;2.83;;;2.13;;
58727;SDS011;44505;43.240;0.070;2023-02-24T04:48:19;2.08;;;1.67;;
58727;SDS011;44505;43.240;0.070;2023-02-24T04:50:45;2.33;;;2.13;;
58727;SDS011;44505;43.240;0.070;2023-02-24T04:53:12;1.95;;;1.77;;
58727;SDS011;44505;43.240;0.070;2023-02-24T04:55:39;2.22;;;2.03;;
58727;SDS011;44505;43.240;0.070;2023-02-24T04:58:09;2.50;;;2.30;;
58727;SDS011;44505;43.240;0.070;2023-02-24T05:00:35;2.95;;;2.20;;
58727;SDS011;44505;43.240;0.070;2023-02-24T05:03:02;3.13;;;2.15;;
58727;SDS011;44505;43.240;0.070;2023-02-24T05:05:27;2.75;;;2.30;;
58727;SDS011;44505;43.240;0.070;2023-02-24T05:07:54;2.58;;;2.10;;
58727;SDS011;44505;43.240;0.070;2023-02-24T05:10:20;3.70;;;2.60;;
58727;SDS011;44505;43.240;0.070;2023-02-24T05:12:46;5.07;;;2.65;;
58727;SDS011;44505;43.240;0.070;2023-02-24T05:15:12;9.80;;;4.30;;
58727;SDS011;44505;43.240;0.070;2023-02-24T05:17:37;4.68;;;3.47;;
58727;SDS011;44505;43.240;0.070;2023-02-24T05:20:04;4.18;;;2.80;;
58727;SDS011;44505;43.240;0.070;2023-02-24T05:22:49;6.10;;;3.10;;
58727;SDS011;44505;43.240;0.070;2023-02-24T05:25:18;4.38;;;3.05;;
58727;SDS011;44505;43.240;0.070;2023-02-24T05:27:44;3.65;;;2.53;;
58727;SDS011;44505;43.240;0.070;2023-02-24T05:30:09;10.93;;;4.72;;
58727;SDS011;44505;43.240;0.070;2023-02-24T05:32:35;12.25;;;5.40;;
58727;SDS011;44505;43.240;0.070;2023-02-24T05:35:01;8.43;;;3.83;;
58727;SDS011;44505;43.240;0.070;2023-02-24T05:37:27;7.22;;;3.55;;
58727;SDS011;44505;43.240;0.070;2023-02-24T05:39:55;6.95;;;4.88;;
58727;SDS011;44505;43.240;0.070;2023-02-24T05:42:24;5.72;;;3.90;;
58727;SDS011;44505;43.240;0.070;2023-02-24T05:44:49;6.63;;;4.20;;
58727;SDS011;44505;43.240;0.070;2023-02-24T05:47:14;7.32;;;4.20;;
58727;SDS011;44505;43.240;0.070;2023-02-24T05:49:43;6.90;;;4.07;;
58727;SDS011;44505;43.240;0.070;2023-02-24T05:52:09;4.47;;;3.75;;
58727;SDS011;44505;43.240;0.070;2023-02-24T05:54:39;5.32;;;3.58;;
58727;SDS011;44505;43.240;0.070;2023-02-24T05:57:08;6.90;;;4.18;;
58727;SDS011;44505;43.240;0.070;2023-02-24T05:59:36;4.75;;;3.28;;
58727;SDS011;44505;43.240;0.070;2023-02-24T06:02:04;4.63;;;3.10;;
58727;SDS011;44505;43.240;0.070;2023-02-24T06:04:31;4.03;;;3.63;;
58727;SDS011;44505;43.240;0.070;2023-02-24T06:07:16;4.95;;;3.45;;
58727;SDS011;44505;43.240;0.070;2023-02-24T06:09:47;5.05;;;3.35;;
58727;SDS011;44505;43.240;0.070;2023-02-24T06:12:18;4.55;;;3.25;;
58727;SDS011;44505;43.240;0.070;2023-02-24T06:14:44;4.80;;;3.65;;
58727;SDS011;44505;43.240;0.070;2023-02-24T06:17:09;5.47;;;3.25;;
58727;SDS011;44505;43.240;0.070;2023-02-24T06:19:35;5.47;;;3.30;;
58727;SDS011;44505;43.240;0.070;2023-02-24T06:22:01;5.13;;;3.97;;
58727;SDS011;44505;43.240;0.070;2023-02-24T06:24:30;5.13;;;3.85;;
58727;SDS011;44505;43.240;0.070;2023-02-24T06:26:56;4.72;;;3.63;;
58727;SDS011;44505;43.240;0.070;2023-02-24T06:29:34;5.50;;;4.28;;
58727;SDS011;44505;43.240;0.070;2023-02-24T06:32:00;7.55;;;3.70;;
58727;SDS011;44505;43.240;0.070;2023-02-24T06:34:33;3.80;;;3.35;;
58727;SDS011;44505;43.240;0.070;2023-02-24T06:36:58;5.22;;;3.17;;
58727;SDS011;44505;43.240;0.070;2023-02-24T06:39:23;7.20;;;4.25;;
58727;SDS011;44505;43.240;0.070;2023-02-24T06:41:49;5.25;;;4.10;;
58727;SDS011;44505;43.240;0.070;2023-02-24T06:44:15;4.32;;;3.38;;
58727;SDS011;44505;43.240;0.070;2023-02-24T06:46:41;5.00;;;3.78;;
58727;SDS011;44505;43.240;0.070;2023-02-24T06:49:07;3.45;;;3.15;;
58727;SDS011;44505;43.240;0.070;2023-02-24T06:51:34;3.10;;;2.78;;
58727;SDS011;44505;43.240;0.070;2023-02-24T06:53:59;3.75;;;2.95;;
58727;SDS011;44505;43.240;0.070;2023-02-24T06:56:25;3.30;;;2.78;;
58727;SDS011;44505;43.240;0.070;2023-02-24T06:58:51;4.53;;;3.17;;
58727;SDS011;44505;43.240;0.070;2023-02-24T07:01:18;10.98;;;5.63;;
58727;SDS011;44505;43.240;0.070;2023-02-24T07:03:44;39.88;;;18.55;;
58727;SDS011;44505;43.240;0.070;2023-02-24T07:06:33;28.03;;;16.10;;
58727;SDS011;44505;43.240;0.070;2023-02-24T07:09:02;13.10;;;8.75;;
58727;SDS011;44505;43.240;0.070;2023-02-24T07:11:31;58.42;;;28.83;;
58727;SDS011;44505;43.240;0.070;2023-02-24T07:13:58;107.93;;;54.17;;
58727;SDS011;44505;43.240;0.070;2023-02-24T07:16:23;100.57;;;53.85;;
58727;SDS011;44505;43.240;0.070;2023-02-24T07:19:09;144.43;;;88.53;;
58727;SDS011;44505;43.240;0.070;2023-02-24T07:21:38;96.77;;;57.77;;
58727;SDS011;44505;43.240;0.070;2023-02-24T07:24:06;41.55;;;30.73;;
58727;SDS011;44505;43.240;0.070;2023-02-24T07:26:33;14.52;;;12.63;;
58727;SDS011;44505;43.240;0.070;2023-02-24T07:28:58;9.88;;;8.65;;
58727;SDS011;44505;43.240;0.070;2023-02-24T07:31:28;9.35;;;8.30;;
58727;SDS011;44505;43.240;0.070;2023-02-24T07:33:56;44.90;;;29.60;;
58727;SDS011;44505;43.240;0.070;2023-02-24T07:36:22;39.60;;;26.35;;
58727;SDS011;44505;43.240;0.070;2023-02-24T07:38:50;29.13;;;19.77;;
58727;SDS011;44505;43.240;0.070;2023-02-24T07:41:16;19.23;;;14.52;;
58727;SDS011;44505;43.240;0.070;2023-02-24T07:43:43;13.33;;;9.60;;
58727;SDS011;44505;43.240;0.070;2023-02-24T07:46:14;9.23;;;7.80;;
58727;SDS011;44505;43.240;0.070;2023-02-24T07:48:40;6.78;;;5.93;;
58727;SDS011;44505;43.240;0.070;2023-02-24T07:51:06;10.20;;;8.25;;
58727;SDS011;44505;43.240;0.070;2023-02-24T07:53:32;8.13;;;7.10;;
58727;SDS011;44505;43.240;0.070;2023-02-24T07:55:57;26.50;;;19.00;;
58727;SDS011;44505;43.240;0.070;2023-02-24T07:58:23;25.25;;;19.40;;
58727;SDS011;44505;43.240;0.070;2023-02-24T08:00:48;17.45;;;13.30;;
58727;SDS011;44505;43.240;0.070;2023-02-24T08:03:24;27.52;;;22.33;;
58727;SDS011;44505;43.240;0.070;2023-02-24T08:08:17;10.50;;;7.95;;
58727;SDS011;44505;43.240;0.070;2023-02-24T08:10:45;27.27;;;18.63;;
58727;SDS011;44505;43.240;0.070;2023-02-24T08:13:11;32.40;;;19.80;;
58727;SDS011;44505;43.240;0.070;2023-02-24T08:15:37;36.00;;;22.85;;
58727;SDS011;44505;43.240;0.070;2023-02-24T08:18:02;14.68;;;11.48;;
58727;SDS011;44505;43.240;0.070;2023-02-24T08:20:28;10.23;;;7.72;;
58727;SDS011;44505;43.240;0.070;2023-02-24T08:23:00;22.67;;;14.15;;
58727;SDS011;44505;43.240;0.070;2023-02-24T08:25:26;25.67;;;15.90;;
58727;SDS011;44505;43.240;0.070;2023-02-24T08:27:59;77.38;;;41.60;;
58727;SDS011;44505;43.240;0.070;2023-02-24T08:30:30;68.32;;;35.70;;
58727;SDS011;44505;43.240;0.070;2023-02-24T08:33:02;67.35;;;38.80;;
58727;SDS011;44505;43.240;0.070;2023-02-24T08:35:28;114.22;;;63.55;;
58727;SDS011;44505;43.240;0.070;2023-02-24T08:38:12;48.92;;;30.38;;
58727;SDS011;44505;43.240;0.070;2023-02-24T08:40:42;51.30;;;36.33;;
58727;SDS011;44505;43.240;0.070;2023-02-24T08:43:15;47.42;;;28.52;;
58727;SDS011;44505;43.240;0.070;2023-02-24T08:45:51;30.60;;;21.77;;
58727;SDS011;44505;43.240;0.070;2023-02-24T08:48:24;26.40;;;18.40;;
58727;SDS011;44505;43.240;0.070;2023-02-24T08:51:01;53.45;;;30.23;;
58727;SDS011;44505;43.240;0.070;2023-02-24T08:53:28;17.13;;;11.30;;
58727;SDS011;44505;43.240;0.070;2023-02-24T08:55:56;14.87;;;11.07;;
58727;SDS011;44505;43.240;0.070;2023-02-24T08:58:22;44.92;;;24.83;;
58727;SDS011;44505;43.240;0.070;2023-02-24T09:00:53;173.35;;;73.20;;
58727;SDS011;44505;43.240;0.070;2023-02-24T09:03:21;54.13;;;31.02;;
58727;SDS011;44505;43.240;0.070;2023-02-24T09:05:57;105.47;;;40.95;;
58727;SDS011;44505;43.240;0.070;2023-02-24T09:08:23;18.58;;;13.77;;
58727;SDS011;44505;43.240;0.070;2023-02-24T09:10:49;14.32;;;9.60;;
58727;SDS011;44505;43.240;0.070;2023-02-24T09:13:14;15.40;;;11.80;;
58727;SDS011;44505;43.240;0.070;2023-02-24T09:15:39;19.00;;;12.30;;
58727;SDS011;44505;43.240;0.070;2023-02-24T09:18:08;13.30;;;10.00;;
58727;SDS011;44505;43.240;0.070;2023-02-24T09:20:38;10.35;;;7.15;;
58727;SDS011;44505;43.240;0.070;2023-02-24T09:23:40;10.38;;;6.80;;
58727;SDS011;44505;43.240;0.070;2023-02-24T09:26:11;24.45;;;11.35;;
58727;SDS011;44505;43.240;0.070;2023-02-24T09:28:38;6.53;;;5.00;;
58727;SDS011;44505;43.240;0.070;2023-02-24T09:31:13;3.65;;;3.15;;
58727;SDS011;44505;43.240;0.070;2023-02-24T09:33:41;4.13;;;3.38;;
58727;SDS011;44505;43.240;0.070;2023-02-24T09:36:08;4.50;;;3.80;;
58727;SDS011;44505;43.240;0.070;2023-02-24T09:38:37;3.30;;;2.50;;
58727;SDS011;44505;43.240;0.070;2023-02-24T09:41:23;2.38;;;2.17;;
58727;SDS011;44505;43.240;0.070;2023-02-24T09:44:14;2.58;;;2.35;;
58727;SDS011;44505;43.240;0.070;2023-02-24T09:49:41;1.80;;;1.70;;
58727;SDS011;44505;43.240;0.070;2023-02-24T09:52:16;2.30;;;2.08;;
58727;SDS011;44505;43.240;0.070;2023-02-24T09:54:45;2.00;;;1.90;;
58727;SDS011;44505;43.240;0.070;2023-02-24T09:57:31;2.00;;;1.77;;
58727;SDS011;44505;43.240;0.070;2023-02-24T10:00:03;1.92;;;1.73;;
58727;SDS011;44505;43.240;0.070;2023-02-24T10:05:59;2.00;;;1.83;;
58727;SDS011;44505;43.240;0.070;2023-02-24T10:08:36;2.42;;;1.85;;
58727;SDS011;44505;43.240;0.070;2023-02-24T10:11:02;2.25;;;1.90;;
58727;SDS011;44505;43.240;0.070;2023-02-24T10:13:31;2.40;;;2.17;;
58727;SDS011;44505;43.240;0.070;2023-02-24T10:18:29;1.83;;;1.70;;
58727;SDS011;44505;43.240;0.070;2023-02-24T10:21:00;1.92;;;1.77;;
58727;SDS011;44505;43.240;0.070;2023-02-24T10:23:51;2.58;;;1.73;;
58727;SDS011;44505;43.240;0.070;2023-02-24T10:26:22;1.80;;;1.70;;
58727;SDS011;44505;43.240;0.070;2023-02-24T10:31:47;2.72;;;1.70;;
58727;SDS011;44505;43.240;0.070;2023-02-24T10:34:22;2.08;;;1.90;;
58727;SDS011;44505;43.240;0.070;2023-02-24T10:36:56;2.13;;;1.92;;
58727;SDS011;44505;43.240;0.070;2023-02-24T10:39:24;3.00;;;2.17;;
58727;SDS011;44505;43.240;0.070;2023-02-24T10:41:55;2.45;;;2.25;;
58727;SDS011;44505;43.240;0.070;2023-02-24T10:44:39;3.92;;;2.15;;
58727;SDS011;44505;43.240;0.070;2023-02-24T10:47:16;2.88;;;2.40;;
58727;SDS011;44505;43.240;0.070;2023-02-24T10:49:43;2.35;;;2.03;;
58727;SDS011;44505;43.240;0.070;2023-02-24T10:52:21;4.07;;;2.70;;
58727;SDS011;44505;43.240;0.070;2023-02-24T10:58:26;3.13;;;2.78;;
58727;SDS011;44505;43.240;0.070;2023-02-24T11:00:53;8.43;;;6.00;;
58727;SDS011;44505;43.240;0.070;2023-02-24T11:03:36;4.28;;;3.90;;
58727;SDS011;44505;43.240;0.070;2023-02-24T11:06:18;7.47;;;4.50;;
58727;SDS011;44505;43.240;0.070;2023-02-24T11:11:45;4.25;;;3.88;;
58727;SDS011;44505;43.240;0.070;2023-02-24T11:14:29;4.63;;;3.60;;
58727;SDS011;44505;43.240;0.070;2023-02-24T11:17:18;3.45;;;3.15;;
58727;SDS011;44505;43.240;0.070;2023-02-24T11:22:14;3.38;;;3.08;;
58727;SDS011;44505;43.240;0.070;2023-02-24T11:24:40;4.20;;;3.83;;
58727;SDS011;44505;43.240;0.070;2023-02-24T11:27:08;3.03;;;2.70;;
58727;SDS011;44505;43.240;0.070;2023-02-24T11:35:00;4.25;;;2.97;;
58727;SDS011;44505;43.240;0.070;2023-02-24T11:37:38;5.97;;;3.90;;
58727;SDS011;44505;43.240;0.070;2023-02-24T11:40:19;4.38;;;3.80;;
58727;SDS011;44505;43.240;0.070;2023-02-24T11:42:52;3.80;;;3.30;;
58727;SDS011;44505;43.240;0.070;2023-02-24T11:45:24;4.00;;;3.00;;
58727;SDS011;44505;43.240;0.070;2023-02-24T11:47:54;5.43;;;4.90;;
58727;SDS011;44505;43.240;0.070;2023-02-24T11:53:16;3.28;;;2.72;;
58727;SDS011;44505;43.240;0.070;2023-02-24T11:55:44;2.72;;;2.53;;
58727;SDS011;44505;43.240;0.070;2023-02-24T12:00:40;3.00;;;2.80;;
58727;SDS011;44505;43.240;0.070;2023-02-24T12:03:26;3.28;;;2.38;;
58727;SDS011;44505;43.240;0.070;2023-02-24T12:05:55;2.83;;;1.90;;
58727;SDS011;44505;43.240;0.070;2023-02-24T12:10:50;1.73;;;1.63;;
58727;SDS011;44505;43.240;0.070;2023-02-24T12:16:03;1.50;;;1.40;;
58727;SDS011;44505;43.240;0.070;2023-02-24T12:18:36;2.53;;;2.33;;
58727;SDS011;44505;43.240;0.070;2023-02-24T12:21:08;1.38;;;1.20;;
58727;SDS011;44505;43.240;0.070;2023-02-24T12:23:36;1.20;;;1.00;;
58727;SDS011;44505;43.240;0.070;2023-02-24T12:26:17;1.75;;;1.15;;
58727;SDS011;44505;43.240;0.070;2023-02-24T12:31:14;1.17;;;1.00;;
58727;SDS011;44505;43.240;0.070;2023-02-24T12:39:34;0.65;;;0.65;;
58727;SDS011;44505;43.240;0.070;2023-02-24T12:47:09;0.80;;;0.80;;
58727;SDS011;44505;43.240;0.070;2023-02-24T12:54:54;2.42;;;1.48;;
58727;SDS011;44505;43.240;0.070;2023-02-24T13:00:10;1.08;;;0.98;;
58727;SDS011;44505;43.240;0.070;2023-02-24T13:02:51;13.13;;;10.68;;
58727;SDS011;44505;43.240;0.070;2023-02-24T13:08:03;2.17;;;1.48;;
58727;SDS011;44505;43.240;0.070;2023-02-24T13:13:06;0.73;;;0.70;;
58727;SDS011;44505;43.240;0.070;2023-02-24T13:15:35;2.40;;;0.68;;
58727;SDS011;44505;43.240;0.070;2023-02-24T13:18:00;0.75;;;0.75;;
58727;SDS011;44505;43.240;0.070;2023-02-24T13:20:32;0.93;;;0.60;;
58727;SDS011;44505;43.240;0.070;2023-02-24T13:22:59;0.52;;;0.50;;
58727;SDS011;44505;43.240;0.070;2023-02-24T13:25:28;0.65;;;0.60;;
58727;SDS011;44505;43.240;0.070;2023-02-24T13:28:01;0.60;;;0.60;;
58727;SDS011;44505;43.240;0.070;2023-02-24T13:30:33;0.43;;;0.43;;
58727;SDS011;44505;43.240;0.070;2023-02-24T13:35:42;0.40;;;0.40;;
58727;SDS011;44505;43.240;0.070;2023-02-24T13:38:21;0.50;;;0.50;;
58727;SDS011;44505;43.240;0.070;2023-02-24T13:40:47;0.50;;;0.50;;
58727;SDS011;44505;43.240;0.070;2023-02-24T13:43:21;1.38;;;0.52;;
58727;SDS011;44505;43.240;0.070;2023-02-24T13:45:52;0.50;;;0.50;;
58727;SDS011;44505;43.240;0.070;2023-02-24T13:53:33;0.70;;;0.52;;
58727;SDS011;44505;43.240;0.070;2023-02-24T13:58:38;1.05;;;0.60;;
58727;SDS011;44505;43.240;0.070;2023-02-24T14:01:10;0.82;;;0.75;;
58727;SDS011;44505;43.240;0.070;2023-02-24T14:03:38;1.88;;;0.52;;
58727;SDS011;44505;43.240;0.070;2023-02-24T14:06:05;0.57;;;0.57;;
58727;SDS011;44505;43.240;0.070;2023-02-24T14:11:28;0.65;;;0.65;;
58727;SDS011;44505;43.240;0.070;2023-02-24T14:13:55;1.48;;;0.60;;
58727;SDS011;44505;43.240;0.070;2023-02-24T14:16:37;0.60;;;0.60;;
58727;SDS011;44505;43.240;0.070;2023-02-24T14:19:09;0.60;;;0.60;;
58727;SDS011;44505;43.240;0.070;2023-02-24T14:21:36;1.30;;;0.70;;
58727;SDS011;44505;43.240;0.070;2023-02-24T14:24:02;0.98;;;0.55;;
58727;SDS011;44505;43.240;0.070;2023-02-24T14:28:55;0.60;;;0.60;;
58727;SDS011;44505;43.240;0.070;2023-02-24T14:31:22;0.63;;;0.63;;
58727;SDS011;44505;43.240;0.070;2023-02-24T14:33:52;1.00;;;0.70;;
58727;SDS011;44505;43.240;0.070;2023-02-24T14:36:28;0.68;;;0.68;;
58727;SDS011;44505;43.240;0.070;2023-02-24T14:41:38;0.90;;;0.50;;
58727;SDS011;44505;43.240;0.070;2023-02-24T14:44:07;0.55;;;0.55;;
58727;SDS011;44505;43.240;0.070;2023-02-24T14:46:32;1.35;;;1.13;;
58727;SDS011;44505;43.240;0.070;2023-02-24T14:48:58;0.90;;;0.90;;
58727;SDS011;44505;43.240;0.070;2023-02-24T14:51:29;0.85;;;0.85;;
58727;SDS011;44505;43.240;0.070;2023-02-24T14:53:58;0.63;;;0.63;;
58727;SDS011;44505;43.240;0.070;2023-02-24T14:56:27;0.88;;;0.75;;
58727;SDS011;44505;43.240;0.070;2023-02-24T14:58:58;0.60;;;0.60;;
58727;SDS011;44505;43.240;0.070;2023-02-24T15:03:58;0.65;;;0.65;;
58727;SDS011;44505;43.240;0.070;2023-02-24T15:06:25;0.63;;;0.50;;
58727;SDS011;44505;43.240;0.070;2023-02-24T15:08:54;0.65;;;0.65;;
58727;SDS011;44505;43.240;0.070;2023-02-24T15:11:22;0.60;;;0.60;;
58727;SDS011;44505;43.240;0.070;2023-02-24T15:13:54;0.50;;;0.50;;
58727;SDS011;44505;43.240;0.070;2023-02-24T15:16:22;0.70;;;0.70;;
58727;SDS011;44505;43.240;0.070;2023-02-24T15:18:52;2.58;;;1.95;;
58727;SDS011;44505;43.240;0.070;2023-02-24T15:21:22;1.58;;;1.35;;
58727;SDS011;44505;43.240;0.070;2023-02-24T15:23:47;0.70;;;0.70;;
58727;SDS011;44505;43.240;0.070;2023-02-24T15:26:26;10.80;;;7.72;;
58727;SDS011;44505;43.240;0.070;2023-02-24T15:28:59;2.25;;;1.27;;
58727;SDS011;44505;43.240;0.070;2023-02-24T15:31:24;1.80;;;1.13;;
58727;SDS011;44505;43.240;0.070;2023-02-24T15:33:53;0.88;;;0.88;;
58727;SDS011;44505;43.240;0.070;2023-02-24T15:36:20;1.63;;;1.48;;
58727;SDS011;44505;43.240;0.070;2023-02-24T15:38:51;5.00;;;3.75;;
58727;SDS011;44505;43.240;0.070;2023-02-24T15:41:17;4.95;;;4.25;;
58727;SDS011;44505;43.240;0.070;2023-02-24T15:48:43;51.85;;;30.40;;
58727;SDS011;44505;43.240;0.070;2023-02-24T15:51:15;34.28;;;21.63;;
58727;SDS011;44505;43.240;0.070;2023-02-24T15:53:42;16.52;;;11.18;;
58727;SDS011;44505;43.240;0.070;2023-02-24T15:56:07;22.02;;;13.95;;
58727;SDS011;44505;43.240;0.070;2023-02-24T15:58:32;158.98;;;80.80;;
58727;SDS011;44505;43.240;0.070;2023-02-24T16:00:58;65.85;;;40.40;;
58727;SDS011;44505;43.240;0.070;2023-02-24T16:03:24;16.42;;;12.93;;
58727;SDS011;44505;43.240;0.070;2023-02-24T16:05:49;19.25;;;14.50;;
58727;SDS011;44505;43.240;0.070;2023-02-24T16:08:16;248.65;;;131.80;;
58727;SDS011;44505;43.240;0.070;2023-02-24T16:10:42;87.63;;;47.63;;
58727;SDS011;44505;43.240;0.070;2023-02-24T16:13:08;42.72;;;26.92;;
58727;SDS011;44505;43.240;0.070;2023-02-24T16:15:37;17.90;;;12.68;;
58727;SDS011;44505;43.240;0.070;2023-02-24T16:18:08;103.97;;;56.88;;
58727;SDS011;44505;43.240;0.070;2023-02-24T16:20:42;16.38;;;11.88;;
58727;SDS011;44505;43.240;0.070;2023-02-24T16:23:08;114.43;;;48.25;;
58727;SDS011;44505;43.240;0.070;2023-02-24T16:25:38;207.25;;;91.00;;
58727;SDS011;44505;43.240;0.070;2023-02-24T16:28:04;24.48;;;16.48;;
58727;SDS011;44505;43.240;0.070;2023-02-24T16:30:29;13.65;;;11.65;;
58727;SDS011;44505;43.240;0.070;2023-02-24T16:32:56;124.35;;;52.47;;
58727;SDS011;44505;43.240;0.070;2023-02-24T16:35:21;177.45;;;79.57;;
58727;SDS011;44505;43.240;0.070;2023-02-24T16:37:47;234.32;;;115.18;;
58727;SDS011;44505;43.240;0.070;2023-02-24T16:40:16;122.15;;;64.45;;
58727;SDS011;44505;43.240;0.070;2023-02-24T16:42:41;115.10;;;53.60;;
58727;SDS011;44505;43.240;0.070;2023-02-24T16:45:08;23.90;;;17.63;;
58727;SDS011;44505;43.240;0.070;2023-02-24T16:47:34;19.73;;;14.73;;
58727;SDS011;44505;43.240;0.070;2023-02-24T16:49:59;36.28;;;26.75;;
58727;SDS011;44505;43.240;0.070;2023-02-24T16:52:25;88.78;;;45.17;;
58727;SDS011;44505;43.240;0.070;2023-02-24T16:54:50;86.90;;;46.13;;
58727;SDS011;44505;43.240;0.070;2023-02-24T16:57:15;28.02;;;18.90;;
58727;SDS011;44505;43.240;0.070;2023-02-24T16:59:41;30.95;;;21.25;;
58727;SDS011;44505;43.240;0.070;2023-02-24T17:02:09;23.40;;;18.10;;
58727;SDS011;44505;43.240;0.070;2023-02-24T17:04:41;41.88;;;25.55;;
58727;SDS011;44505;43.240;0.070;2023-02-24T17:07:07;68.38;;;33.25;;